createdAt,value
2022-09-26T00:02:22.862Z,8.36
2022-09-26T00:07:24.893Z,8.22
2022-09-26T00:12:26.564Z,8.07
2022-09-26T00:17:28.441Z,7.94
2022-09-26T00:22:30.113Z,7.83
2022-09-26T00:27:32.093Z,7.76
2022-09-26T00:32:33.765Z,7.69
2022-09-26T00:37:35.742Z,7.58
2022-09-26T00:42:37.619Z,7.47
2022-09-26T00:47:49.121Z,7.36
2022-09-26T00:52:58.370Z,7.25
2022-09-26T00:58:06.596Z,7.15
2022-09-26T01:03:08.370Z,7.12
2022-09-26T01:08:12.914Z,7.05
2022-09-26T01:13:14.582Z,6.99
2022-09-26T01:18:16.460Z,6.92
2022-09-26T01:23:37.489Z,6.85
2022-09-26T01:29:24.727Z,6.77
2022-09-26T01:34:37.560Z,6.69
2022-09-26T01:40:02.578Z,6.64
2022-09-26T01:45:21.867Z,6.54
2022-09-26T01:51:01.628Z,6.47
2022-09-26T01:56:27.876Z,6.42
2022-09-26T02:01:35.058Z,6.43
2022-09-26T02:07:09.621Z,6.43
2022-09-26T02:12:17.475Z,6.39
2022-09-26T02:17:27.812Z,6.33
2022-09-26T02:22:33.490Z,6.23
2022-09-26T02:27:35.457Z,6.15
2022-09-26T02:32:38.054Z,6.08
2022-09-26T02:37:40.337Z,6.00
2022-09-26T02:43:00.645Z,5.93
2022-09-26T02:48:17.780Z,5.89
2022-09-26T02:53:32.355Z,5.85
2022-09-26T02:59:06.898Z,5.85
2022-09-26T03:04:24.569Z,5.87
2022-09-26T03:09:28.779Z,5.85
2022-09-26T03:14:33.056Z,5.84
2022-09-26T03:19:43.435Z,5.86
2022-09-26T03:24:46.351Z,5.93
2022-09-26T03:29:48.174Z,5.94
2022-09-26T03:34:51.522Z,5.95
2022-09-26T03:39:53.657Z,5.97
2022-09-26T03:44:56.659Z,5.92
2022-09-26T03:49:59.871Z,5.89
2022-09-26T03:55:01.748Z,5.91
2022-09-26T04:00:07.379Z,5.88
2022-09-26T04:05:09.771Z,5.85
2022-09-26T04:10:12.036Z,5.78
2022-09-26T04:15:13.805Z,5.76
2022-09-26T04:20:15.663Z,5.77
2022-09-26T04:25:17.833Z,5.78
2022-09-26T04:30:19.898Z,5.76
2022-09-26T04:35:22.292Z,5.81
2022-09-26T04:40:24.236Z,5.92
2022-09-26T04:45:26.213Z,6.06
2022-09-26T04:50:29.467Z,6.27
2022-09-26T04:55:31.863Z,6.53
2022-09-26T05:00:34.838Z,6.85
2022-09-26T05:05:37.353Z,7.25
2022-09-26T05:10:40.442Z,7.72
2022-09-26T05:15:43.035Z,8.17
2022-09-26T05:20:48.157Z,8.51
2022-09-26T05:26:08.806Z,8.83
2022-09-26T05:31:11.042Z,9.53
2022-09-26T05:36:13.671Z,10.55
2022-09-26T05:41:15.872Z,10.48
2022-09-26T05:46:17.690Z,10.34
2022-09-26T05:51:20.965Z,10.07
2022-09-26T05:56:23.452Z,10.01
2022-09-26T06:01:25.304Z,10.13
2022-09-26T06:06:27.509Z,10.46
2022-09-26T06:11:31.895Z,10.73
2022-09-26T06:16:34.426Z,10.94
2022-09-26T06:21:39.491Z,11.16
2022-09-26T06:26:41.257Z,11.52
2022-09-26T06:31:44.708Z,11.68
2022-09-26T06:36:48.392Z,11.66
2022-09-26T06:41:50.983Z,11.65
2022-09-26T06:46:52.835Z,11.76
2022-09-26T06:51:55.787Z,11.95
2022-09-26T06:56:58.986Z,12.26
2022-09-26T07:02:02.164Z,12.72
2022-09-26T07:07:06.981Z,13.35
2022-09-26T07:12:14.492Z,15.29
2022-09-26T07:17:19.048Z,18.17
2022-09-26T07:22:22.161Z,19.51
2022-09-26T07:27:25.631Z,21.20
2022-09-26T07:32:31.112Z,23.53
2022-09-26T07:37:33.336Z,25.78
2022-09-26T07:42:37.568Z,28.72
2022-09-26T07:47:58.698Z,31.42
2022-09-26T07:53:00.572Z,31.01
2022-09-26T07:58:03.070Z,28.58
2022-09-26T08:03:04.960Z,26.33
2022-09-26T08:08:07.639Z,24.73
2022-09-26T08:13:10.576Z,23.49
2022-09-26T08:18:14.068Z,22.14
2022-09-26T08:23:17.564Z,21.09
2022-09-26T08:28:19.446Z,20.44
2022-09-26T08:33:23.623Z,20.26
2022-09-26T08:38:27.317Z,20.11
2022-09-26T08:43:48.731Z,20.00
2022-09-26T08:49:04.091Z,20.04
2022-09-26T08:54:18.201Z,20.10
2022-09-26T08:59:35.423Z,20.20
2022-09-26T09:04:51.562Z,20.10
2022-09-26T09:10:01.412Z,19.87
2022-09-26T09:15:26.282Z,19.60
2022-09-26T09:20:56.768Z,19.44
2022-09-26T09:31:42.866Z,19.74
2022-09-26T09:36:49.460Z,19.99
2022-09-26T09:41:56.333Z,20.23
2022-09-26T09:46:58.659Z,20.76
2022-09-26T09:52:19.702Z,23.65
2022-09-26T09:57:44.115Z,27.06
2022-09-26T10:02:58.142Z,25.81
2022-09-26T10:08:00.658Z,24.33
2022-09-26T10:13:03.050Z,23.27
2022-09-26T10:18:25.733Z,22.56
2022-09-26T10:23:41.824Z,22.02
2022-09-26T10:28:52.008Z,21.67
2022-09-26T10:33:58.798Z,21.52
2022-09-26T10:39:34.864Z,21.51
2022-09-26T10:44:36.945Z,21.43
2022-09-26T10:49:50.508Z,21.35
2022-09-26T10:55:05.344Z,21.29
2022-09-26T11:00:08.901Z,21.19
2022-09-26T11:05:35.451Z,21.28
2022-09-26T11:10:41.729Z,21.45
2022-09-26T11:16:17.736Z,21.40
2022-09-26T11:21:29.278Z,21.58
2022-09-26T11:26:40.302Z,21.85
2022-09-26T11:31:43.458Z,21.89
2022-09-26T11:37:10.064Z,21.70
2022-09-26T11:42:48.619Z,21.50
2022-09-26T11:48:16.563Z,21.32
2022-09-26T11:53:52.208Z,21.11
2022-09-26T11:59:39.514Z,20.96
2022-09-26T12:05:01.048Z,20.91
2022-09-26T12:10:24.928Z,20.88
2022-09-26T12:15:37.775Z,20.92
2022-09-26T12:20:46.114Z,20.96
2022-09-26T12:26:01.363Z,21.06
2022-09-26T12:31:13.102Z,21.18
2022-09-26T12:36:40.680Z,21.19
2022-09-26T14:10:13.549Z,19.25
2022-09-26T14:15:25.604Z,18.90
2022-09-26T14:20:35.139Z,18.59
2022-09-26T14:25:48.577Z,18.38
2022-09-26T14:31:14.298Z,18.33
2022-09-26T14:36:25.369Z,18.48
2022-09-26T14:41:35.055Z,18.79
2022-09-26T14:46:42.452Z,19.05
2022-09-26T14:51:49.592Z,19.12
2022-09-26T14:57:05.899Z,19.12
2022-09-26T15:02:15.429Z,19.07
2022-09-26T15:07:25.688Z,18.96
2022-09-26T15:12:29.916Z,18.77
2022-09-26T15:17:39.804Z,18.48
2022-09-26T15:22:45.877Z,18.14
2022-09-26T15:28:00.370Z,17.84
2022-09-26T15:33:06.045Z,17.55
2022-09-26T15:38:14.143Z,17.28
2022-09-26T15:43:21.139Z,17.03
2022-09-26T15:48:27.564Z,16.79
2022-09-26T15:53:39.967Z,16.54
2022-09-26T15:58:52.570Z,16.28
2022-09-26T16:04:02.484Z,16.02
2022-09-26T16:09:08.616Z,15.77
2022-09-26T16:14:30.873Z,15.54
2022-09-26T16:19:36.499Z,15.30
2022-09-26T16:24:40.575Z,15.07
2022-09-26T16:29:52.067Z,14.88
2022-09-26T16:35:14.008Z,14.70
2022-09-26T16:40:21.094Z,14.51
2022-09-26T16:45:25.244Z,14.37
2022-09-26T16:50:34.287Z,14.23
2022-09-26T16:55:37.709Z,14.09
2022-09-26T17:01:07.167Z,13.98
2022-09-26T17:06:10.632Z,13.91
2022-09-26T17:11:16.646Z,13.87
2022-09-26T17:16:22.391Z,13.87
2022-09-26T17:21:26.535Z,13.90
2022-09-26T17:26:35.028Z,13.92
2022-09-26T17:31:39.806Z,13.96
2022-09-26T17:36:48.510Z,13.96
2022-09-26T17:41:55.395Z,13.95
2022-09-26T17:47:00.854Z,13.94
2022-09-26T17:52:12.686Z,13.94
2022-09-26T17:57:18.080Z,13.94
2022-09-26T18:02:38.211Z,13.91
2022-09-26T18:07:44.979Z,13.90
2022-09-26T18:12:58.407Z,13.89
2022-09-26T18:18:04.116Z,13.88
2022-09-26T18:23:17.423Z,13.89
2022-09-26T18:28:24.468Z,13.90
2022-09-26T18:33:29.762Z,13.91
2022-09-26T18:38:36.110Z,13.89
2022-09-26T18:43:43.109Z,13.85
2022-09-26T18:48:48.554Z,13.75
2022-09-26T18:53:53.070Z,13.65
2022-09-26T18:58:58.436Z,13.56
2022-09-26T19:04:16.893Z,13.49
2022-09-26T19:09:23.331Z,13.42
2022-09-26T19:14:31.409Z,13.38
2022-09-26T19:19:35.249Z,13.35
2022-09-26T19:24:44.618Z,13.32
2022-09-26T19:30:14.682Z,13.30
2022-09-26T19:35:24.076Z,13.28
2022-09-26T19:40:28.235Z,13.26
2022-09-26T19:45:37.171Z,13.26
2022-09-26T19:50:41.644Z,13.27
2022-09-26T19:55:48.876Z,13.28
2022-09-26T20:01:02.239Z,13.29
2022-09-26T20:06:26.839Z,13.30
2022-09-26T20:11:32.425Z,13.26
2022-09-26T20:16:42.999Z,13.20
2022-09-26T20:21:47.658Z,13.17
2022-09-26T20:26:53.008Z,13.15
2022-09-26T20:31:56.819Z,13.11
2022-09-26T20:37:00.875Z,13.07
2022-09-26T20:42:08.076Z,13.05
2022-09-26T20:47:17.955Z,13.03
2022-09-26T20:52:24.892Z,13.00
2022-09-26T20:57:30.517Z,12.98
2022-09-26T21:02:43.864Z,12.97
2022-09-26T21:07:50.922Z,13.01
2022-09-26T21:12:56.369Z,13.03
2022-09-26T21:18:01.864Z,13.05
2022-09-26T21:23:05.294Z,13.08
2022-09-26T21:28:28.722Z,13.10
2022-09-26T21:33:31.800Z,13.10
2022-09-26T21:38:35.094Z,13.07
2022-09-26T21:43:43.625Z,13.02
2022-09-26T21:48:47.140Z,12.96
2022-09-26T21:54:00.998Z,12.89
2022-09-26T21:59:06.570Z,12.83
2022-09-26T22:04:09.770Z,12.77
2022-09-26T22:09:13.746Z,12.68
2022-09-26T22:14:17.111Z,12.61
2022-09-26T22:19:20.007Z,12.55
2022-09-26T22:24:23.113Z,12.50
2022-09-26T22:29:26.321Z,12.49
2022-09-26T22:34:30.173Z,12.48
2022-09-26T22:39:33.249Z,12.46
2022-09-26T22:44:36.355Z,12.44
2022-09-26T22:49:39.465Z,12.44
2022-09-26T22:54:42.468Z,12.44
2022-09-26T22:59:45.671Z,12.44
2022-09-26T23:04:48.705Z,12.44
2022-09-26T23:09:52.143Z,12.43
2022-09-26T23:14:55.192Z,12.40
2022-09-26T23:19:58.300Z,12.36
2022-09-26T23:25:01.507Z,12.34
2022-09-26T23:30:07.211Z,12.32
2022-09-26T23:35:10.891Z,12.30
2022-09-26T23:40:14.276Z,12.30
2022-09-26T23:45:17.645Z,12.30
2022-09-26T23:50:21.367Z,12.32
2022-09-26T23:55:24.576Z,12.31
